sensor_id;sensor_type;location;lat;lon;timestamp;temperature;humidity
46926;DHT22;32667;48.248;-1.700;2024-03-02T00:01:56;5.80;80.80
46926;DHT22;32667;48.248;-1.700;2024-03-02T00:04:22;5.80;80.80
46926;DHT22;32667;48.248;-1.700;2024-03-02T00:06:50;5.80;80.80
46926;DHT22;32667;48.248;-1.700;2024-03-02T00:09:16;5.80;80.80
46926;DHT22;32667;48.248;-1.700;2024-03-02T00:11:42;5.80;80.80
46926;DHT22;32667;48.248;-1.700;2024-03-02T00:14:08;5.80;80.80
46926;DHT22;32667;48.248;-1.700;2024-03-02T00:16:34;5.90;80.80
46926;DHT22;32667;48.248;-1.700;2024-03-02T00:19:03;5.90;80.80
46926;DHT22;32667;48.248;-1.700;2024-03-02T00:21:32;5.90;80.80
46926;DHT22;32667;48.248;-1.700;2024-03-02T00:24:17;5.90;80.80
46926;DHT22;32667;48.248;-1.700;2024-03-02T00:26:45;5.90;80.80
46926;DHT22;32667;48.248;-1.700;2024-03-02T00:29:13;5.90;80.70
46926;DHT22;32667;48.248;-1.700;2024-03-02T00:31:41;5.90;80.70
46926;DHT22;32667;48.248;-1.700;2024-03-02T00:34:07;5.90;80.60
46926;DHT22;32667;48.248;-1.700;2024-03-02T00:36:33;6.00;80.60
46926;DHT22;32667;48.248;-1.700;2024-03-02T00:39:02;6.10;80.60
46926;DHT22;32667;48.248;-1.700;2024-03-02T00:41:30;6.10;80.50
46926;DHT22;32667;48.248;-1.700;2024-03-02T00:44:05;6.10;80.40
46926;DHT22;32667;48.248;-1.700;2024-03-02T00:46:35;6.10;80.30
46926;DHT22;32667;48.248;-1.700;2024-03-02T00:49:03;6.20;80.30
46926;DHT22;32667;48.248;-1.700;2024-03-02T00:51:33;6.20;80.20
46926;DHT22;32667;48.248;-1.700;2024-03-02T00:54:04;6.20;80.20
46926;DHT22;32667;48.248;-1.700;2024-03-02T00:56:33;6.20;80.30
46926;DHT22;32667;48.248;-1.700;2024-03-02T00:59:00;6.20;80.30
46926;DHT22;32667;48.248;-1.700;2024-03-02T01:01:26;6.20;80.30
46926;DHT22;32667;48.248;-1.700;2024-03-02T01:03:52;6.30;80.30
46926;DHT22;32667;48.248;-1.700;2024-03-02T01:06:20;6.30;80.30
46926;DHT22;32667;48.248;-1.700;2024-03-02T01:09:08;6.30;80.20
46926;DHT22;32667;48.248;-1.700;2024-03-02T01:11:34;6.30;80.20
46926;DHT22;32667;48.248;-1.700;2024-03-02T01:14:00;6.40;80.10
46926;DHT22;32667;48.248;-1.700;2024-03-02T01:16:26;6.40;80.00
46926;DHT22;32667;48.248;-1.700;2024-03-02T01:18:51;6.40;80.00
46926;DHT22;32667;48.248;-1.700;2024-03-02T01:21:17;6.40;80.00
46926;DHT22;32667;48.248;-1.700;2024-03-02T01:23:43;6.50;80.00
46926;DHT22;32667;48.248;-1.700;2024-03-02T01:26:09;6.50;80.00
46926;DHT22;32667;48.248;-1.700;2024-03-02T01:28:51;6.50;80.00
46926;DHT22;32667;48.248;-1.700;2024-03-02T01:31:19;6.60;80.00
46926;DHT22;32667;48.248;-1.700;2024-03-02T01:33:45;6.60;79.90
46926;DHT22;32667;48.248;-1.700;2024-03-02T01:36:10;6.70;79.80
46926;DHT22;32667;48.248;-1.700;2024-03-02T01:38:36;6.70;79.80
46926;DHT22;32667;48.248;-1.700;2024-03-02T01:41:04;6.80;79.80
46926;DHT22;32667;48.248;-1.700;2024-03-02T01:43:29;6.80;79.70
46926;DHT22;32667;48.248;-1.700;2024-03-02T01:45:58;6.80;79.60
46926;DHT22;32667;48.248;-1.700;2024-03-02T01:48:24;6.80;79.70
46926;DHT22;32667;48.248;-1.700;2024-03-02T01:50:50;6.80;79.60
46926;DHT22;32667;48.248;-1.700;2024-03-02T01:53:16;6.80;79.70
46926;DHT22;32667;48.248;-1.700;2024-03-02T01:55:44;6.80;79.70
46926;DHT22;32667;48.248;-1.700;2024-03-02T01:58:10;6.80;79.70
46926;DHT22;32667;48.248;-1.700;2024-03-02T02:00:36;6.80;79.90
46926;DHT22;32667;48.248;-1.700;2024-03-02T02:03:02;6.80;79.80
46926;DHT22;32667;48.248;-1.700;2024-03-02T02:05:28;6.80;79.90
46926;DHT22;32667;48.248;-1.700;2024-03-02T02:08:04;6.80;79.90
46926;DHT22;32667;48.248;-1.700;2024-03-02T02:10:32;6.80;79.90
46926;DHT22;32667;48.248;-1.700;2024-03-02T02:13:00;6.80;80.00
46926;DHT22;32667;48.248;-1.700;2024-03-02T02:15:30;6.80;80.00
46926;DHT22;32667;48.248;-1.700;2024-03-02T02:17:58;6.80;80.00
46926;DHT22;32667;48.248;-1.700;2024-03-02T02:20:25;6.80;79.90
46926;DHT22;32667;48.248;-1.700;2024-03-02T02:22:58;6.80;79.90
46926;DHT22;32667;48.248;-1.700;2024-03-02T02:25:27;6.90;79.90
46926;DHT22;32667;48.248;-1.700;2024-03-02T02:27:53;6.90;79.90
46926;DHT22;32667;48.248;-1.700;2024-03-02T02:30:26;6.90;79.90
46926;DHT22;32667;48.248;-1.700;2024-03-02T02:32:52;7.00;79.90
46926;DHT22;32667;48.248;-1.700;2024-03-02T02:35:27;7.00;79.80
46926;DHT22;32667;48.248;-1.700;2024-03-02T02:37:55;7.00;79.70
46926;DHT22;32667;48.248;-1.700;2024-03-02T02:40:22;7.00;79.70
46926;DHT22;32667;48.248;-1.700;2024-03-02T02:42:48;7.00;79.80
46926;DHT22;32667;48.248;-1.700;2024-03-02T02:45:14;7.00;79.80
46926;DHT22;32667;48.248;-1.700;2024-03-02T02:51:04;7.00;79.80
46926;DHT22;32667;48.248;-1.700;2024-03-02T02:53:32;7.00;79.80
46926;DHT22;32667;48.248;-1.700;2024-03-02T02:56:00;7.00;79.80
46926;DHT22;32667;48.248;-1.700;2024-03-02T02:58:26;7.00;79.90
46926;DHT22;32667;48.248;-1.700;2024-03-02T03:00:52;6.90;79.90
46926;DHT22;32667;48.248;-1.700;2024-03-02T03:03:24;6.90;79.90
46926;DHT22;32667;48.248;-1.700;2024-03-02T03:05:50;6.90;79.90
46926;DHT22;32667;48.248;-1.700;2024-03-02T03:08:16;6.90;79.90
46926;DHT22;32667;48.248;-1.700;2024-03-02T03:10:42;6.90;80.00
46926;DHT22;32667;48.248;-1.700;2024-03-02T03:13:11;6.90;80.00
46926;DHT22;32667;48.248;-1.700;2024-03-02T03:15:37;6.90;80.00
46926;DHT22;32667;48.248;-1.700;2024-03-02T03:18:03;6.90;80.00
46926;DHT22;32667;48.248;-1.700;2024-03-02T03:20:30;6.90;80.00
46926;DHT22;32667;48.248;-1.700;2024-03-02T03:22:59;7.00;80.00
46926;DHT22;32667;48.248;-1.700;2024-03-02T03:25:29;7.00;80.00
46926;DHT22;32667;48.248;-1.700;2024-03-02T03:27:55;7.00;79.90
46926;DHT22;32667;48.248;-1.700;2024-03-02T03:30:21;7.00;79.90
46926;DHT22;32667;48.248;-1.700;2024-03-02T03:32:49;7.00;80.00
46926;DHT22;32667;48.248;-1.700;2024-03-02T03:35:15;7.00;80.00
46926;DHT22;32667;48.248;-1.700;2024-03-02T03:37:41;7.00;80.00
46926;DHT22;32667;48.248;-1.700;2024-03-02T03:40:07;7.00;80.00
46926;DHT22;32667;48.248;-1.700;2024-03-02T03:42:36;7.00;80.00
46926;DHT22;32667;48.248;-1.700;2024-03-02T03:45:03;7.00;79.90
46926;DHT22;32667;48.248;-1.700;2024-03-02T03:47:29;7.00;79.90
46926;DHT22;32667;48.248;-1.700;2024-03-02T03:49:57;7.00;80.00
46926;DHT22;32667;48.248;-1.700;2024-03-02T03:52:23;7.00;79.90
46926;DHT22;32667;48.248;-1.700;2024-03-02T03:54:55;7.00;80.00
46926;DHT22;32667;48.248;-1.700;2024-03-02T03:57:20;7.10;80.00
46926;DHT22;32667;48.248;-1.700;2024-03-02T03:59:46;7.10;79.90
46926;DHT22;32667;48.248;-1.700;2024-03-02T04:02:14;7.10;79.90
46926;DHT22;32667;48.248;-1.700;2024-03-02T04:04:42;7.00;79.80
46926;DHT22;32667;48.248;-1.700;2024-03-02T04:07:10;7.00;79.90
46926;DHT22;32667;48.248;-1.700;2024-03-02T04:09:36;7.00;79.90
46926;DHT22;32667;48.248;-1.700;2024-03-02T04:12:04;7.00;80.00
46926;DHT22;32667;48.248;-1.700;2024-03-02T04:14:30;6.90;79.90
46926;DHT22;32667;48.248;-1.700;2024-03-02T04:17:10;6.90;80.00
46926;DHT22;32667;48.248;-1.700;2024-03-02T04:19:41;6.90;80.10
46926;DHT22;32667;48.248;-1.700;2024-03-02T04:22:09;6.80;80.20
46926;DHT22;32667;48.248;-1.700;2024-03-02T04:24:35;6.70;80.20
46926;DHT22;32667;48.248;-1.700;2024-03-02T04:27:01;6.70;80.30
46926;DHT22;32667;48.248;-1.700;2024-03-02T04:29:27;6.70;80.40
46926;DHT22;32667;48.248;-1.700;2024-03-02T04:31:53;6.70;80.40
46926;DHT22;32667;48.248;-1.700;2024-03-02T04:34:19;6.70;80.50
46926;DHT22;32667;48.248;-1.700;2024-03-02T04:36:45;6.60;80.40
46926;DHT22;32667;48.248;-1.700;2024-03-02T04:39:11;6.60;80.50
46926;DHT22;32667;48.248;-1.700;2024-03-02T04:41:36;6.60;80.60
46926;DHT22;32667;48.248;-1.700;2024-03-02T04:44:02;6.60;80.70
46926;DHT22;32667;48.248;-1.700;2024-03-02T04:46:31;6.60;80.60
46926;DHT22;32667;48.248;-1.700;2024-03-02T04:48:57;6.60;80.70
46926;DHT22;32667;48.248;-1.700;2024-03-02T04:51:23;6.60;80.60
46926;DHT22;32667;48.248;-1.700;2024-03-02T04:53:48;6.60;80.60
46926;DHT22;32667;48.248;-1.700;2024-03-02T04:56:14;6.60;80.60
46926;DHT22;32667;48.248;-1.700;2024-03-02T04:58:51;6.60;80.60
46926;DHT22;32667;48.248;-1.700;2024-03-02T05:01:17;6.50;80.60
46926;DHT22;32667;48.248;-1.700;2024-03-02T05:03:43;6.50;80.70
46926;DHT22;32667;48.248;-1.700;2024-03-02T05:06:09;6.50;80.70
46926;DHT22;32667;48.248;-1.700;2024-03-02T05:08:36;6.50;80.70
46926;DHT22;32667;48.248;-1.700;2024-03-02T05:11:02;6.50;80.70
46926;DHT22;32667;48.248;-1.700;2024-03-02T05:13:46;6.50;80.70
46926;DHT22;32667;48.248;-1.700;2024-03-02T05:16:14;6.50;80.70
46926;DHT22;32667;48.248;-1.700;2024-03-02T05:18:40;6.50;80.70
46926;DHT22;32667;48.248;-1.700;2024-03-02T05:21:13;6.50;80.70
46926;DHT22;32667;48.248;-1.700;2024-03-02T05:23:39;6.50;80.70
46926;DHT22;32667;48.248;-1.700;2024-03-02T05:26:07;6.50;81.30
46926;DHT22;32667;48.248;-1.700;2024-03-02T05:28:33;6.50;80.70
46926;DHT22;32667;48.248;-1.700;2024-03-02T05:30:59;6.50;80.70
46926;DHT22;32667;48.248;-1.700;2024-03-02T05:33:24;6.40;80.60
46926;DHT22;32667;48.248;-1.700;2024-03-02T05:35:53;6.50;80.60
46926;DHT22;32667;48.248;-1.700;2024-03-02T05:38:19;6.50;80.60
46926;DHT22;32667;48.248;-1.700;2024-03-02T05:40:45;6.50;80.60
46926;DHT22;32667;48.248;-1.700;2024-03-02T05:43:10;6.40;80.60
46926;DHT22;32667;48.248;-1.700;2024-03-02T05:45:37;6.40;80.60
46926;DHT22;32667;48.248;-1.700;2024-03-02T05:48:02;6.40;80.60
46926;DHT22;32667;48.248;-1.700;2024-03-02T05:50:31;6.40;80.60
46926;DHT22;32667;48.248;-1.700;2024-03-02T05:52:56;6.40;80.60
46926;DHT22;32667;48.248;-1.700;2024-03-02T05:55:22;6.40;80.60
46926;DHT22;32667;48.248;-1.700;2024-03-02T05:57:48;6.40;80.70
46926;DHT22;32667;48.248;-1.700;2024-03-02T06:00:34;6.40;80.70
46926;DHT22;32667;48.248;-1.700;2024-03-02T06:03:00;6.40;80.70
46926;DHT22;32667;48.248;-1.700;2024-03-02T06:05:25;6.30;80.70
46926;DHT22;32667;48.248;-1.700;2024-03-02T06:07:51;6.30;80.70
46926;DHT22;32667;48.248;-1.700;2024-03-02T06:10:19;6.30;80.70
46926;DHT22;32667;48.248;-1.700;2024-03-02T06:12:48;6.20;80.80
46926;DHT22;32667;48.248;-1.700;2024-03-02T06:15:14;6.30;80.90
46926;DHT22;32667;48.248;-1.700;2024-03-02T06:17:45;6.30;80.90
46926;DHT22;32667;48.248;-1.700;2024-03-02T06:20:13;6.30;80.90
46926;DHT22;32667;48.248;-1.700;2024-03-02T06:22:39;6.30;80.80
46926;DHT22;32667;48.248;-1.700;2024-03-02T06:25:05;6.40;80.80
46926;DHT22;32667;48.248;-1.700;2024-03-02T06:27:31;6.40;80.70
46926;DHT22;32667;48.248;-1.700;2024-03-02T06:29:56;6.40;80.70
46926;DHT22;32667;48.248;-1.700;2024-03-02T06:32:22;6.40;80.70
46926;DHT22;32667;48.248;-1.700;2024-03-02T06:34:52;6.40;80.60
46926;DHT22;32667;48.248;-1.700;2024-03-02T06:37:17;6.40;80.60
46926;DHT22;32667;48.248;-1.700;2024-03-02T06:39:46;6.50;80.60
46926;DHT22;32667;48.248;-1.700;2024-03-02T06:42:12;6.50;80.50
46926;DHT22;32667;48.248;-1.700;2024-03-02T06:44:40;6.60;80.50
46926;DHT22;32667;48.248;-1.700;2024-03-02T06:47:06;6.60;80.40
46926;DHT22;32667;48.248;-1.700;2024-03-02T06:49:31;6.60;80.40
46926;DHT22;32667;48.248;-1.700;2024-03-02T06:52:03;6.60;80.40
46926;DHT22;32667;48.248;-1.700;2024-03-02T06:54:32;6.60;81.00
46926;DHT22;32667;48.248;-1.700;2024-03-02T06:57:00;6.60;80.40
46926;DHT22;32667;48.248;-1.700;2024-03-02T06:59:28;6.60;80.50
46926;DHT22;32667;48.248;-1.700;2024-03-02T07:01:54;6.60;80.50
46926;DHT22;32667;48.248;-1.700;2024-03-02T07:04:20;6.60;80.50
46926;DHT22;32667;48.248;-1.700;2024-03-02T07:06:45;6.60;80.50
46926;DHT22;32667;48.248;-1.700;2024-03-02T07:09:11;6.60;80.50
46926;DHT22;32667;48.248;-1.700;2024-03-02T07:11:37;6.50;80.40
46926;DHT22;32667;48.248;-1.700;2024-03-02T07:14:05;6.50;80.50
46926;DHT22;32667;48.248;-1.700;2024-03-02T07:16:33;6.50;80.50
46926;DHT22;32667;48.248;-1.700;2024-03-02T07:19:10;6.50;80.60
46926;DHT22;32667;48.248;-1.700;2024-03-02T07:21:36;6.50;80.60
46926;DHT22;32667;48.248;-1.700;2024-03-02T07:24:01;6.50;80.60
46926;DHT22;32667;48.248;-1.700;2024-03-02T07:26:34;6.40;80.60
46926;DHT22;32667;48.248;-1.700;2024-03-02T07:29:10;6.40;80.60
46926;DHT22;32667;48.248;-1.700;2024-03-02T07:31:35;6.40;80.60
46926;DHT22;32667;48.248;-1.700;2024-03-02T07:34:03;6.40;80.60
46926;DHT22;32667;48.248;-1.700;2024-03-02T07:36:29;6.40;80.70
46926;DHT22;32667;48.248;-1.700;2024-03-02T07:38:55;6.40;80.70
46926;DHT22;32667;48.248;-1.700;2024-03-02T07:41:20;6.40;80.60
46926;DHT22;32667;48.248;-1.700;2024-03-02T07:43:46;6.50;80.60
46926;DHT22;32667;48.248;-1.700;2024-03-02T07:46:17;6.40;80.60
46926;DHT22;32667;48.248;-1.700;2024-03-02T07:48:46;6.40;80.60
46926;DHT22;32667;48.248;-1.700;2024-03-02T07:51:15;6.40;80.60
46926;DHT22;32667;48.248;-1.700;2024-03-02T07:53:41;6.50;80.60
46926;DHT22;32667;48.248;-1.700;2024-03-02T07:56:06;6.50;80.60
46926;DHT22;32667;48.248;-1.700;2024-03-02T07:58:35;6.50;80.50
46926;DHT22;32667;48.248;-1.700;2024-03-02T08:01:03;6.50;80.60
46926;DHT22;32667;48.248;-1.700;2024-03-02T08:03:31;6.50;80.50
46926;DHT22;32667;48.248;-1.700;2024-03-02T08:05:59;6.60;80.50
46926;DHT22;32667;48.248;-1.700;2024-03-02T08:08:25;6.60;80.40
46926;DHT22;32667;48.248;-1.700;2024-03-02T08:10:51;6.70;80.30
46926;DHT22;32667;48.248;-1.700;2024-03-02T08:13:23;6.70;80.20
46926;DHT22;32667;48.248;-1.700;2024-03-02T08:15:49;6.70;80.10
46926;DHT22;32667;48.248;-1.700;2024-03-02T08:18:17;6.70;80.70
46926;DHT22;32667;48.248;-1.700;2024-03-02T08:20:43;6.80;80.20
46926;DHT22;32667;48.248;-1.700;2024-03-02T08:23:18;6.80;80.10
46926;DHT22;32667;48.248;-1.700;2024-03-02T08:25:47;6.90;80.20
46926;DHT22;32667;48.248;-1.700;2024-03-02T08:28:12;7.00;80.10
46926;DHT22;32667;48.248;-1.700;2024-03-02T08:30:40;7.10;80.00
46926;DHT22;32667;48.248;-1.700;2024-03-02T08:33:06;7.20;79.80
46926;DHT22;32667;48.248;-1.700;2024-03-02T08:35:32;7.40;79.60
46926;DHT22;32667;48.248;-1.700;2024-03-02T08:38:02;7.50;79.50
46926;DHT22;32667;48.248;-1.700;2024-03-02T08:40:28;7.60;79.30
46926;DHT22;32667;48.248;-1.700;2024-03-02T08:42:54;7.70;79.10
46926;DHT22;32667;48.248;-1.700;2024-03-02T08:45:20;7.80;79.10
46926;DHT22;32667;48.248;-1.700;2024-03-02T08:47:48;7.90;79.00
46926;DHT22;32667;48.248;-1.700;2024-03-02T08:50:16;8.00;79.00
46926;DHT22;32667;48.248;-1.700;2024-03-02T08:52:42;8.10;79.00
46926;DHT22;32667;48.248;-1.700;2024-03-02T08:55:08;8.10;78.80
46926;DHT22;32667;48.248;-1.700;2024-03-02T09:00:58;8.30;78.60
46926;DHT22;32667;48.248;-1.700;2024-03-02T09:03:27;8.30;78.50
46926;DHT22;32667;48.248;-1.700;2024-03-02T09:05:53;8.30;78.50
46926;DHT22;32667;48.248;-1.700;2024-03-02T09:08:19;8.30;78.60
46926;DHT22;32667;48.248;-1.700;2024-03-02T09:10:45;8.30;78.80
46926;DHT22;32667;48.248;-1.700;2024-03-02T09:13:10;8.40;78.80
46926;DHT22;32667;48.248;-1.700;2024-03-02T09:15:39;8.40;78.70
46926;DHT22;32667;48.248;-1.700;2024-03-02T09:18:12;8.30;78.70
46926;DHT22;32667;48.248;-1.700;2024-03-02T09:20:37;8.30;78.90
46926;DHT22;32667;48.248;-1.700;2024-03-02T09:23:03;8.30;78.80
46926;DHT22;32667;48.248;-1.700;2024-03-02T09:25:29;8.30;79.00
46926;DHT22;32667;48.248;-1.700;2024-03-02T09:27:55;8.30;79.00
46926;DHT22;32667;48.248;-1.700;2024-03-02T09:30:20;8.40;79.10
46926;DHT22;32667;48.248;-1.700;2024-03-02T09:32:46;8.40;79.00
46926;DHT22;32667;48.248;-1.700;2024-03-02T09:35:12;8.50;79.00
46926;DHT22;32667;48.248;-1.700;2024-03-02T09:37:44;8.50;78.90
46926;DHT22;32667;48.248;-1.700;2024-03-02T09:40:13;8.60;78.70
46926;DHT22;32667;48.248;-1.700;2024-03-02T09:42:40;8.60;78.70
46926;DHT22;32667;48.248;-1.700;2024-03-02T09:45:06;8.60;78.70
46926;DHT22;32667;48.248;-1.700;2024-03-02T09:47:32;8.70;78.80
46926;DHT22;32667;48.248;-1.700;2024-03-02T09:49:58;8.70;78.60
46926;DHT22;32667;48.248;-1.700;2024-03-02T09:52:23;8.80;78.70
46926;DHT22;32667;48.248;-1.700;2024-03-02T09:54:51;8.80;78.80
46926;DHT22;32667;48.248;-1.700;2024-03-02T09:57:17;8.80;78.70
46926;DHT22;32667;48.248;-1.700;2024-03-02T09:59:45;8.90;78.70
46926;DHT22;32667;48.248;-1.700;2024-03-02T10:02:11;8.90;78.50
46926;DHT22;32667;48.248;-1.700;2024-03-02T10:04:44;8.90;78.50
46926;DHT22;32667;48.248;-1.700;2024-03-02T10:07:12;9.00;78.40
46926;DHT22;32667;48.248;-1.700;2024-03-02T10:09:39;9.00;78.40
46926;DHT22;32667;48.248;-1.700;2024-03-02T10:12:06;9.00;78.40
46926;DHT22;32667;48.248;-1.700;2024-03-02T10:14:31;9.10;78.50
46926;DHT22;32667;48.248;-1.700;2024-03-02T10:17:06;9.20;78.50
46926;DHT22;32667;48.248;-1.700;2024-03-02T10:19:32;9.20;78.30
46926;DHT22;32667;48.248;-1.700;2024-03-02T10:22:04;9.30;78.30
46926;DHT22;32667;48.248;-1.700;2024-03-02T10:24:42;9.40;78.20
46926;DHT22;32667;48.248;-1.700;2024-03-02T10:27:26;9.40;78.20
46926;DHT22;32667;48.248;-1.700;2024-03-02T10:29:55;9.50;78.00
46926;DHT22;32667;48.248;-1.700;2024-03-02T10:32:22;9.60;77.90
46926;DHT22;32667;48.248;-1.700;2024-03-02T10:34:50;9.70;77.80
46926;DHT22;32667;48.248;-1.700;2024-03-02T10:37:18;9.70;77.80
46926;DHT22;32667;48.248;-1.700;2024-03-02T10:39:46;9.70;78.00
46926;DHT22;32667;48.248;-1.700;2024-03-02T10:42:12;9.90;77.80
46926;DHT22;32667;48.248;-1.700;2024-03-02T10:44:39;9.90;77.60
46926;DHT22;32667;48.248;-1.700;2024-03-02T10:47:06;9.90;77.60
46926;DHT22;32667;48.248;-1.700;2024-03-02T10:49:34;9.90;77.60
46926;DHT22;32667;48.248;-1.700;2024-03-02T10:52:00;9.90;77.80
46926;DHT22;32667;48.248;-1.700;2024-03-02T10:54:26;9.90;77.90
46926;DHT22;32667;48.248;-1.700;2024-03-02T10:56:53;9.90;78.00
46926;DHT22;32667;48.248;-1.700;2024-03-02T10:59:36;9.90;78.00
46926;DHT22;32667;48.248;-1.700;2024-03-02T11:02:04;9.90;78.00
46926;DHT22;32667;48.248;-1.700;2024-03-02T11:04:34;9.90;78.10
46926;DHT22;32667;48.248;-1.700;2024-03-02T11:07:04;9.90;78.10
46926;DHT22;32667;48.248;-1.700;2024-03-02T11:09:33;9.90;78.10
46926;DHT22;32667;48.248;-1.700;2024-03-02T11:12:15;9.90;78.10
46926;DHT22;32667;48.248;-1.700;2024-03-02T11:14:43;9.90;78.30
46926;DHT22;32667;48.248;-1.700;2024-03-02T11:17:10;9.90;78.30
46926;DHT22;32667;48.248;-1.700;2024-03-02T11:19:43;9.90;78.30
46926;DHT22;32667;48.248;-1.700;2024-03-02T11:22:11;10.00;78.20
46926;DHT22;32667;48.248;-1.700;2024-03-02T11:24:50;10.10;78.20
46926;DHT22;32667;48.248;-1.700;2024-03-02T11:35:26;10.50;77.60
46926;DHT22;32667;48.248;-1.700;2024-03-02T11:37:52;10.60;77.50
46926;DHT22;32667;48.248;-1.700;2024-03-02T11:40:22;10.70;77.40
46926;DHT22;32667;48.248;-1.700;2024-03-02T11:42:50;10.80;77.30
46926;DHT22;32667;48.248;-1.700;2024-03-02T11:45:39;10.90;77.20
46926;DHT22;32667;48.248;-1.700;2024-03-02T11:48:13;11.00;77.00
46926;DHT22;32667;48.248;-1.700;2024-03-02T11:51:08;11.10;76.90
46926;DHT22;32667;48.248;-1.700;2024-03-02T11:53:35;11.20;76.80
46926;DHT22;32667;48.248;-1.700;2024-03-02T11:56:06;11.20;76.90
46926;DHT22;32667;48.248;-1.700;2024-03-02T11:58:35;11.20;77.00
46926;DHT22;32667;48.248;-1.700;2024-03-02T12:01:01;11.10;77.00
46926;DHT22;32667;48.248;-1.700;2024-03-02T12:03:28;11.10;77.20
46926;DHT22;32667;48.248;-1.700;2024-03-02T12:05:55;11.10;77.30
46926;DHT22;32667;48.248;-1.700;2024-03-02T12:08:21;11.10;77.40
46926;DHT22;32667;48.248;-1.700;2024-03-02T12:11:01;11.10;77.40
46926;DHT22;32667;48.248;-1.700;2024-03-02T12:13:27;11.10;77.60
46926;DHT22;32667;48.248;-1.700;2024-03-02T12:15:54;11.20;77.50
46926;DHT22;32667;48.248;-1.700;2024-03-02T12:18:23;11.20;77.30
46926;DHT22;32667;48.248;-1.700;2024-03-02T12:20:52;11.20;77.30
46926;DHT22;32667;48.248;-1.700;2024-03-02T12:23:18;11.20;77.30
46926;DHT22;32667;48.248;-1.700;2024-03-02T12:25:45;11.30;77.40
46926;DHT22;32667;48.248;-1.700;2024-03-02T12:28:11;11.30;77.30
46926;DHT22;32667;48.248;-1.700;2024-03-02T12:30:40;11.30;77.40
46926;DHT22;32667;48.248;-1.700;2024-03-02T12:33:08;11.40;77.50
46926;DHT22;32667;48.248;-1.700;2024-03-02T12:35:36;11.40;77.30
46926;DHT22;32667;48.248;-1.700;2024-03-02T12:38:02;11.50;77.30
46926;DHT22;32667;48.248;-1.700;2024-03-02T12:40:27;11.60;77.20
46926;DHT22;32667;48.248;-1.700;2024-03-02T12:42:53;11.60;77.00
46926;DHT22;32667;48.248;-1.700;2024-03-02T12:45:19;11.70;77.00
46926;DHT22;32667;48.248;-1.700;2024-03-02T12:47:49;11.70;77.00
46926;DHT22;32667;48.248;-1.700;2024-03-02T12:50:16;11.70;77.10
46926;DHT22;32667;48.248;-1.700;2024-03-02T12:52:50;11.70;77.20
46926;DHT22;32667;48.248;-1.700;2024-03-02T12:55:16;11.60;77.20
46926;DHT22;32667;48.248;-1.700;2024-03-02T12:57:46;11.60;77.30
46926;DHT22;32667;48.248;-1.700;2024-03-02T13:00:12;11.60;77.30
46926;DHT22;32667;48.248;-1.700;2024-03-02T13:02:41;11.50;77.40
46926;DHT22;32667;48.248;-1.700;2024-03-02T13:05:08;11.40;77.50
46926;DHT22;32667;48.248;-1.700;2024-03-02T13:07:37;11.40;77.70
46926;DHT22;32667;48.248;-1.700;2024-03-02T13:10:04;11.30;77.80
46926;DHT22;32667;48.248;-1.700;2024-03-02T13:12:33;11.40;78.00
46926;DHT22;32667;48.248;-1.700;2024-03-02T13:14:58;11.50;77.90
46926;DHT22;32667;48.248;-1.700;2024-03-02T13:17:24;11.70;77.70
46926;DHT22;32667;48.248;-1.700;2024-03-02T13:20:00;11.80;77.50
46926;DHT22;32667;48.248;-1.700;2024-03-02T13:22:26;12.00;77.20
46926;DHT22;32667;48.248;-1.700;2024-03-02T13:24:57;12.10;76.90
46926;DHT22;32667;48.248;-1.700;2024-03-02T13:27:29;12.20;76.70
46926;DHT22;32667;48.248;-1.700;2024-03-02T13:29:54;12.20;76.50
46926;DHT22;32667;48.248;-1.700;2024-03-02T13:32:20;12.10;76.60
46926;DHT22;32667;48.248;-1.700;2024-03-02T13:34:51;12.10;76.80
46926;DHT22;32667;48.248;-1.700;2024-03-02T13:37:20;12.10;76.90
46926;DHT22;32667;48.248;-1.700;2024-03-02T13:39:49;12.20;77.00
46926;DHT22;32667;48.248;-1.700;2024-03-02T13:42:22;12.20;77.00
46926;DHT22;32667;48.248;-1.700;2024-03-02T13:44:48;12.20;76.80
46926;DHT22;32667;48.248;-1.700;2024-03-02T13:47:23;12.30;76.90
46926;DHT22;32667;48.248;-1.700;2024-03-02T13:49:52;12.30;76.90
46926;DHT22;32667;48.248;-1.700;2024-03-02T13:52:20;12.30;76.80
46926;DHT22;32667;48.248;-1.700;2024-03-02T13:54:47;12.30;76.80
46926;DHT22;32667;48.248;-1.700;2024-03-02T13:57:13;12.30;76.90
46926;DHT22;32667;48.248;-1.700;2024-03-02T13:59:40;12.30;77.00
46926;DHT22;32667;48.248;-1.700;2024-03-02T14:02:06;12.30;77.00
46926;DHT22;32667;48.248;-1.700;2024-03-02T14:04:35;12.30;77.00
46926;DHT22;32667;48.248;-1.700;2024-03-02T14:07:01;12.40;77.00
46926;DHT22;32667;48.248;-1.700;2024-03-02T14:09:29;12.40;77.00
46926;DHT22;32667;48.248;-1.700;2024-03-02T14:11:58;12.40;77.00
46926;DHT22;32667;48.248;-1.700;2024-03-02T14:14:26;12.50;76.90
46926;DHT22;32667;48.248;-1.700;2024-03-02T14:16:53;12.50;76.80
46926;DHT22;32667;48.248;-1.700;2024-03-02T14:19:28;12.40;76.80
46926;DHT22;32667;48.248;-1.700;2024-03-02T14:21:54;12.40;77.00
46926;DHT22;32667;48.248;-1.700;2024-03-02T14:24:20;12.30;77.10
46926;DHT22;32667;48.248;-1.700;2024-03-02T14:26:49;12.30;77.20
46926;DHT22;32667;48.248;-1.700;2024-03-02T14:29:15;12.40;77.30
46926;DHT22;32667;48.248;-1.700;2024-03-02T14:31:40;12.40;77.20
46926;DHT22;32667;48.248;-1.700;2024-03-02T14:34:06;12.40;77.20
46926;DHT22;32667;48.248;-1.700;2024-03-02T14:36:34;12.40;77.20
46926;DHT22;32667;48.248;-1.700;2024-03-02T14:39:00;12.40;77.10
46926;DHT22;32667;48.248;-1.700;2024-03-02T14:41:29;12.40;77.20
46926;DHT22;32667;48.248;-1.700;2024-03-02T14:43:55;12.30;77.20
46926;DHT22;32667;48.248;-1.700;2024-03-02T14:46:21;12.30;77.20
46926;DHT22;32667;48.248;-1.700;2024-03-02T14:48:47;12.30;77.10
46926;DHT22;32667;48.248;-1.700;2024-03-02T14:51:18;12.30;77.20
46926;DHT22;32667;48.248;-1.700;2024-03-02T14:53:43;12.40;77.30
46926;DHT22;32667;48.248;-1.700;2024-03-02T14:56:09;12.40;77.10
46926;DHT22;32667;48.248;-1.700;2024-03-02T14:58:58;12.40;77.20
46926;DHT22;32667;48.248;-1.700;2024-03-02T15:01:24;12.30;77.20
46926;DHT22;32667;48.248;-1.700;2024-03-02T15:03:53;12.30;77.30
46926;DHT22;32667;48.248;-1.700;2024-03-02T15:06:18;12.30;77.50
46926;DHT22;32667;48.248;-1.700;2024-03-02T15:08:44;12.30;77.50
46926;DHT22;32667;48.248;-1.700;2024-03-02T15:11:13;12.30;77.50
46926;DHT22;32667;48.248;-1.700;2024-03-02T15:13:39;12.40;77.60
46926;DHT22;32667;48.248;-1.700;2024-03-02T15:16:05;12.50;77.30
46926;DHT22;32667;48.248;-1.700;2024-03-02T15:21:42;12.70;76.80
46926;DHT22;32667;48.248;-1.700;2024-03-02T15:24:07;12.80;76.60
46926;DHT22;32667;48.248;-1.700;2024-03-02T15:26:34;12.80;76.60
46926;DHT22;32667;48.248;-1.700;2024-03-02T15:29:03;12.80;76.70
46926;DHT22;32667;48.248;-1.700;2024-03-02T15:31:31;12.80;76.80
46926;DHT22;32667;48.248;-1.700;2024-03-02T15:33:59;12.90;76.70
46926;DHT22;32667;48.248;-1.700;2024-03-02T15:36:24;13.00;76.60
46926;DHT22;32667;48.248;-1.700;2024-03-02T15:38:53;13.10;76.40
46926;DHT22;32667;48.248;-1.700;2024-03-02T15:41:18;13.20;76.20
46926;DHT22;32667;48.248;-1.700;2024-03-02T15:43:46;13.30;76.00
46926;DHT22;32667;48.248;-1.700;2024-03-02T15:46:12;13.30;75.90
46926;DHT22;32667;48.248;-1.700;2024-03-02T15:48:40;13.30;76.50
46926;DHT22;32667;48.248;-1.700;2024-03-02T15:51:06;13.30;76.10